createdAt,value
2022-10-31T00:01:36.468Z,20.23
2022-10-31T00:04:04.749Z,22.07
2022-10-31T00:06:32.395Z,21.17
2022-10-31T00:09:03.218Z,19.83
2022-10-31T00:11:31.328Z,31.00
2022-10-31T00:14:02.260Z,30.63
2022-10-31T00:16:31.348Z,61.07
2022-10-31T00:19:02.515Z,18.67
2022-10-31T00:21:31.543Z,37.77
2022-10-31T00:24:00.459Z,24.50
2022-10-31T00:26:34.457Z,19.37
2022-10-31T00:29:02.119Z,22.07
2022-10-31T00:31:29.845Z,12.47
2022-10-31T00:33:58.971Z,13.33
2022-10-31T00:36:26.406Z,11.80
2022-10-31T00:38:53.815Z,26.40
2022-10-31T00:41:21.372Z,40.20
2022-10-31T00:43:48.947Z,111.73
2022-10-31T00:46:16.394Z,16.27
2022-10-31T00:48:44.253Z,10.90
2022-10-31T00:51:11.895Z,16.67
2022-10-31T00:53:39.292Z,28.33
2022-10-31T00:56:07.410Z,26.13
2022-10-31T00:58:34.855Z,20.37
2022-10-31T01:01:02.493Z,17.27
2022-10-31T01:03:33.450Z,17.57
2022-10-31T01:06:08.353Z,14.60
2022-10-31T01:08:37.183Z,17.60
2022-10-31T01:11:07.597Z,34.00
2022-10-31T01:13:36.394Z,49.30
2022-10-31T01:16:06.836Z,54.50
2022-10-31T01:18:36.275Z,40.33
2022-10-31T01:21:10.492Z,20.37
2022-10-31T01:23:38.847Z,19.83
2022-10-31T01:26:13.289Z,19.73
2022-10-31T01:28:50.505Z,19.27
2022-10-31T01:31:20.754Z,22.37
2022-10-31T01:33:48.614Z,17.53
2022-10-31T01:36:23.523Z,18.20
2022-10-31T01:38:52.830Z,19.90
2022-10-31T01:41:24.016Z,17.30
2022-10-31T01:43:57.213Z,16.37
2022-10-31T01:46:37.398Z,19.97
2022-10-31T01:49:15.072Z,17.83
2022-10-31T01:51:53.235Z,18.67
2022-10-31T01:54:24.460Z,20.97
2022-10-31T01:56:56.953Z,24.80
2022-10-31T01:59:29.020Z,36.93
2022-10-31T02:01:57.033Z,18.87
2022-10-31T02:04:26.366Z,21.03
2022-10-31T02:07:12.189Z,17.13
2022-10-31T02:09:41.125Z,14.80
2022-10-31T02:12:12.070Z,15.73
2022-10-31T02:14:40.155Z,15.63
2022-10-31T02:17:07.694Z,14.80
2022-10-31T02:19:35.036Z,16.80
2022-10-31T02:22:32.754Z,17.97
2022-10-31T02:25:35.202Z,18.70
2022-10-31T02:28:36.415Z,13.40
2022-10-31T02:31:22.379Z,12.27
2022-10-31T02:34:19.445Z,14.33
2022-10-31T02:36:59.669Z,13.90
2022-10-31T02:40:16.502Z,11.53
2022-10-31T02:42:49.613Z,12.33
2022-10-31T02:45:29.074Z,12.27
2022-10-31T02:48:05.066Z,11.23
2022-10-31T02:50:35.891Z,13.10
2022-10-31T02:53:04.621Z,12.27
2022-10-31T02:55:31.899Z,12.23
2022-10-31T02:58:24.252Z,11.73
2022-10-31T03:01:08.900Z,12.67
2022-10-31T03:04:00.750Z,12.83
2022-10-31T03:06:37.908Z,12.93
2022-10-31T03:09:29.066Z,13.17
2022-10-31T03:12:13.880Z,17.03
2022-10-31T03:15:06.890Z,16.37
2022-10-31T03:17:44.142Z,16.53
2022-10-31T03:20:12.211Z,13.83
2022-10-31T03:22:42.174Z,14.40
2022-10-31T03:25:10.493Z,15.23
2022-10-31T03:27:40.524Z,15.37
2022-10-31T03:30:09.347Z,15.83
2022-10-31T03:32:43.951Z,15.30
2022-10-31T03:35:14.369Z,64.63
2022-10-31T03:37:43.360Z,11.40
2022-10-31T03:40:13.690Z,14.13
2022-10-31T03:42:47.941Z,15.07
2022-10-31T03:45:26.467Z,11.13
2022-10-31T03:47:56.240Z,15.70
2022-10-31T03:50:39.678Z,17.90
2022-10-31T03:53:16.278Z,17.60
2022-10-31T03:55:54.864Z,27.57
2022-10-31T03:58:56.307Z,22.50
2022-10-31T04:01:25.462Z,47.67
2022-10-31T04:03:54.157Z,36.23
2022-10-31T04:06:24.602Z,30.87
2022-10-31T04:09:06.108Z,37.07
2022-10-31T04:11:39.686Z,53.47
2022-10-31T04:14:08.362Z,29.67
2022-10-31T04:16:35.832Z,16.80
2022-10-31T04:19:03.297Z,26.43
2022-10-31T04:21:32.113Z,14.73
2022-10-31T04:23:59.681Z,13.97
2022-10-31T04:26:27.309Z,11.50
2022-10-31T04:28:54.794Z,13.40
2022-10-31T04:31:22.850Z,12.13
2022-10-31T04:33:50.256Z,11.27
2022-10-31T04:36:17.693Z,10.67
2022-10-31T04:38:45.090Z,11.97
2022-10-31T04:41:12.536Z,12.70
2022-10-31T04:43:40.004Z,10.77
2022-10-31T04:46:07.422Z,11.33
2022-10-31T04:48:35.219Z,17.50
2022-10-31T04:51:03.471Z,23.70
2022-10-31T04:53:31.046Z,27.10
2022-10-31T04:56:01.745Z,22.90
2022-10-31T04:58:29.467Z,20.67
2022-10-31T05:00:57.617Z,19.57
2022-10-31T05:03:25.079Z,17.63
2022-10-31T05:05:52.643Z,12.30
2022-10-31T05:08:20.044Z,15.10
2022-10-31T05:10:47.555Z,14.67
2022-10-31T05:13:16.657Z,13.30
2022-10-31T05:15:44.175Z,13.57
2022-10-31T05:18:12.267Z,12.37
2022-10-31T05:20:39.631Z,16.63
2022-10-31T05:23:07.042Z,22.23
2022-10-31T05:25:34.515Z,15.60
2022-10-31T05:28:02.266Z,15.13
2022-10-31T05:30:33.587Z,25.33
2022-10-31T05:33:01.620Z,25.47
2022-10-31T05:35:32.834Z,16.93
2022-10-31T05:38:00.675Z,22.90
2022-10-31T05:40:28.989Z,18.23
2022-10-31T05:42:59.771Z,20.43
2022-10-31T05:45:27.652Z,15.73
2022-10-31T05:48:01.309Z,42.50
2022-10-31T05:50:31.762Z,17.87
2022-10-31T05:53:05.950Z,20.83
2022-10-31T05:55:33.892Z,14.80
2022-10-31T05:58:02.001Z,17.97
2022-10-31T06:00:30.331Z,13.47
2022-10-31T06:03:03.428Z,15.73
2022-10-31T06:05:31.866Z,12.87
2022-10-31T06:08:00.116Z,14.63
2022-10-31T06:10:28.501Z,14.07
2022-10-31T06:12:55.923Z,12.60
2022-10-31T06:15:24.496Z,12.00
2022-10-31T06:18:05.131Z,10.37
2022-10-31T06:20:33.844Z,9.83
2022-10-31T06:23:02.605Z,9.43
2022-10-31T06:25:30.548Z,9.70
2022-10-31T06:27:58.062Z,12.00
2022-10-31T06:30:26.246Z,13.70
2022-10-31T06:32:54.067Z,12.63
2022-10-31T06:35:21.842Z,32.70
2022-10-31T06:37:56.916Z,9.97
2022-10-31T06:40:24.540Z,8.37
2022-10-31T06:43:02.562Z,9.10
2022-10-31T06:45:30.398Z,8.53
2022-10-31T06:50:46.187Z,10.37
2022-10-31T06:53:15.370Z,9.37
2022-10-31T06:55:43.715Z,9.10
2022-10-31T06:58:12.353Z,9.77
2022-10-31T07:00:39.820Z,9.77
2022-10-31T07:03:12.659Z,10.03
2022-10-31T07:05:40.812Z,9.70
2022-10-31T07:08:14.302Z,8.77
2022-10-31T07:10:43.697Z,9.67
2022-10-31T07:13:15.968Z,11.30
2022-10-31T07:15:44.904Z,10.60
2022-10-31T07:18:13.785Z,9.33
2022-10-31T07:20:41.289Z,11.00
2022-10-31T07:23:11.870Z,14.50
2022-10-31T07:25:43.089Z,15.30
2022-10-31T07:28:10.972Z,12.80
2022-10-31T07:30:39.605Z,13.23
2022-10-31T07:33:07.711Z,11.67
2022-10-31T07:35:36.000Z,13.03
2022-10-31T07:38:12.072Z,15.53
2022-10-31T07:40:40.126Z,13.47
2022-10-31T07:43:10.146Z,14.37
2022-10-31T07:45:41.497Z,13.07
2022-10-31T07:48:08.955Z,13.97
2022-10-31T07:50:36.716Z,13.87
2022-10-31T07:53:10.694Z,12.90
2022-10-31T07:55:38.891Z,15.60
2022-10-31T07:58:09.879Z,14.17
2022-10-31T08:00:39.320Z,14.97
2022-10-31T08:03:09.755Z,14.23
2022-10-31T08:05:37.990Z,16.27
2022-10-31T08:08:06.565Z,15.10
2022-10-31T08:10:35.355Z,15.17
2022-10-31T08:13:05.296Z,16.00
2022-10-31T08:15:35.080Z,16.07
2022-10-31T08:18:03.465Z,15.60
2022-10-31T08:20:31.246Z,16.70
2022-10-31T08:23:05.405Z,15.13
2022-10-31T08:25:38.428Z,15.73
2022-10-31T08:28:07.938Z,17.80
2022-10-31T08:30:37.607Z,16.73
2022-10-31T08:33:13.009Z,13.97
2022-10-31T08:35:40.990Z,15.90
2022-10-31T08:38:10.619Z,15.87
2022-10-31T08:40:38.472Z,11.60
2022-10-31T08:43:14.968Z,10.57
2022-10-31T08:45:43.606Z,9.03
2022-10-31T08:48:14.460Z,7.83
2022-10-31T08:50:42.759Z,8.83
2022-10-31T08:53:17.088Z,7.70
2022-10-31T08:55:46.746Z,7.23
2022-10-31T08:58:17.825Z,9.90
2022-10-31T09:00:47.362Z,6.67
2022-10-31T09:15:41.942Z,9.97
2022-10-31T09:18:09.969Z,7.13
2022-10-31T09:20:39.062Z,8.83
2022-10-31T09:23:11.424Z,10.63
2022-10-31T09:25:39.784Z,8.63
2022-10-31T09:28:11.410Z,8.63
2022-10-31T09:30:39.703Z,8.20
2022-10-31T09:33:13.198Z,6.13
2022-10-31T09:35:42.271Z,6.60
2022-10-31T09:38:16.237Z,7.57
2022-10-31T09:41:33.125Z,8.23
2022-10-31T09:44:22.600Z,9.27
2022-10-31T09:47:33.411Z,9.67
2022-10-31T09:50:17.276Z,8.43
2022-10-31T09:52:59.340Z,8.73
2022-10-31T09:55:43.424Z,11.70
2022-10-31T09:58:21.117Z,8.17
2022-10-31T10:00:49.805Z,7.03
2022-10-31T10:03:36.941Z,5.70
2022-10-31T10:06:23.511Z,9.03
2022-10-31T10:08:51.163Z,7.23
2022-10-31T10:11:43.663Z,7.83
2022-10-31T10:14:40.786Z,7.50
2022-10-31T10:18:01.850Z,6.97
2022-10-31T10:21:16.149Z,6.93
2022-10-31T10:24:22.910Z,8.03
2022-10-31T10:27:28.499Z,8.17
2022-10-31T10:30:20.274Z,7.97
2022-10-31T10:33:01.177Z,10.10
2022-10-31T10:35:52.907Z,8.77
2022-10-31T10:38:45.764Z,9.17
2022-10-31T10:41:23.933Z,9.10
2022-10-31T10:43:53.276Z,13.10
2022-10-31T10:47:00.398Z,7.73
2022-10-31T10:49:37.160Z,6.90
2022-10-31T10:52:50.314Z,11.00
2022-10-31T10:55:46.896Z,8.37
2022-10-31T10:58:14.334Z,8.07
2022-10-31T11:00:48.065Z,8.93
2022-10-31T11:03:17.949Z,7.70
2022-10-31T11:05:59.476Z,8.07
2022-10-31T11:08:37.482Z,7.77
2022-10-31T11:11:33.637Z,9.00
2022-10-31T11:14:16.070Z,8.23
2022-10-31T11:16:52.002Z,8.87
2022-10-31T11:19:27.691Z,13.77
2022-10-31T11:21:55.622Z,13.13
2022-10-31T11:24:29.191Z,7.47
2022-10-31T11:27:24.402Z,14.17
2022-10-31T11:29:56.798Z,11.93
2022-10-31T11:32:28.717Z,9.53
2022-10-31T11:35:01.796Z,6.90
2022-10-31T11:37:36.293Z,10.97
2022-10-31T11:40:07.625Z,9.23
2022-10-31T11:42:43.955Z,8.27
2022-10-31T11:45:31.434Z,9.63
2022-10-31T11:48:02.175Z,8.73
2022-10-31T11:50:41.530Z,9.73
2022-10-31T11:53:30.080Z,12.57
2022-10-31T11:56:16.366Z,9.13
2022-10-31T11:58:44.161Z,10.17
2022-10-31T12:01:44.179Z,9.23
2022-10-31T12:04:14.003Z,7.57
2022-10-31T12:06:47.267Z,7.73
2022-10-31T12:09:26.025Z,7.27
2022-10-31T12:12:27.024Z,6.17
2022-10-31T12:15:33.997Z,6.87
2022-10-31T12:18:10.190Z,10.90
2022-10-31T12:21:32.758Z,6.43
2022-10-31T12:24:12.148Z,10.70
2022-10-31T12:26:55.158Z,8.60
2022-10-31T12:29:52.361Z,10.85
2022-10-31T12:32:42.662Z,7.95
2022-10-31T12:35:24.477Z,11.63
2022-10-31T12:38:25.944Z,8.60
2022-10-31T12:41:26.155Z,9.48
2022-10-31T12:44:08.459Z,7.07
2022-10-31T12:46:38.678Z,6.33
2022-10-31T12:49:44.086Z,10.97
2022-10-31T12:52:20.184Z,7.55
2022-10-31T12:55:12.961Z,8.68
2022-10-31T12:57:55.908Z,8.35
2022-10-31T13:00:26.558Z,8.35
2022-10-31T13:03:28.310Z,9.82
2022-10-31T13:06:06.264Z,10.02
2022-10-31T13:08:52.623Z,10.25
2022-10-31T13:11:26.351Z,8.13
2022-10-31T13:14:35.447Z,7.05
2022-10-31T13:17:04.122Z,14.55
2022-10-31T13:19:40.382Z,6.05
2022-10-31T13:22:36.858Z,7.05
2022-10-31T13:25:10.277Z,9.45
2022-10-31T13:27:54.627Z,7.80
2022-10-31T13:30:25.320Z,7.90
2022-10-31T13:33:19.762Z,6.80
2022-10-31T13:36:10.306Z,7.63
2022-10-31T13:38:51.356Z,6.75
2022-10-31T13:41:49.821Z,9.50
2022-10-31T13:44:35.860Z,7.28
2022-10-31T13:47:25.626Z,9.35
2022-10-31T13:49:53.367Z,7.97
2022-10-31T13:52:26.634Z,6.50
2022-10-31T13:54:58.045Z,7.80
2022-10-31T13:57:36.615Z,6.97
2022-10-31T14:00:21.001Z,8.20
2022-10-31T14:02:55.580Z,8.38
2022-10-31T14:05:35.451Z,9.52
2022-10-31T14:08:07.582Z,5.85
2022-10-31T14:10:40.169Z,10.00
2022-10-31T14:13:16.298Z,7.10
2022-10-31T14:16:18.272Z,10.30
2022-10-31T14:19:07.812Z,8.30
2022-10-31T14:21:49.027Z,6.25
2022-10-31T14:24:26.753Z,7.45
2022-10-31T14:26:55.110Z,10.05
2022-10-31T14:29:34.623Z,11.73
2022-10-31T14:32:12.111Z,5.85
2022-10-31T14:34:44.659Z,7.32
2022-10-31T14:37:42.964Z,11.88
2022-10-31T14:40:37.247Z,12.35
2022-10-31T14:43:19.592Z,8.02
2022-10-31T14:46:08.073Z,8.43
2022-10-31T14:49:07.518Z,12.30
2022-10-31T14:51:42.245Z,20.43
2022-10-31T14:54:24.714Z,13.37
2022-10-31T14:56:58.398Z,10.97
2022-10-31T14:59:33.970Z,13.50
2022-10-31T15:02:13.926Z,17.43
2022-10-31T15:04:42.832Z,16.37
2022-10-31T15:07:24.901Z,16.90
2022-10-31T15:10:25.441Z,12.90
2022-10-31T15:12:53.034Z,7.40
2022-10-31T15:15:24.895Z,9.73
2022-10-31T15:18:01.562Z,11.27
2022-10-31T15:20:44.844Z,7.70
2022-10-31T15:23:22.062Z,11.20
2022-10-31T15:25:49.479Z,10.73
2022-10-31T15:28:24.878Z,14.43
2022-10-31T15:30:57.867Z,24.13
2022-10-31T15:33:37.533Z,23.67
2022-10-31T15:36:06.601Z,12.47
2022-10-31T15:38:34.251Z,13.23
2022-10-31T15:41:44.332Z,11.93
2022-10-31T15:44:21.303Z,33.90
2022-10-31T15:47:02.675Z,40.93
2022-10-31T15:49:42.344Z,25.30
2022-10-31T15:52:48.503Z,13.90
2022-10-31T15:55:19.355Z,63.70
2022-10-31T15:57:59.832Z,49.07
2022-10-31T16:00:29.075Z,62.13
2022-10-31T16:03:13.561Z,68.93
2022-10-31T16:05:48.139Z,18.60
2022-10-31T16:08:31.335Z,14.90
2022-10-31T16:11:07.532Z,17.00
2022-10-31T16:13:43.611Z,23.23
2022-10-31T16:16:34.803Z,29.93
2022-10-31T16:19:05.875Z,20.70
2022-10-31T16:21:39.653Z,17.60
2022-10-31T16:24:30.572Z,22.80
2022-10-31T16:27:08.544Z,15.53
2022-10-31T16:29:44.756Z,13.83
2022-10-31T16:32:55.060Z,18.03
2022-10-31T16:35:37.293Z,12.67
2022-10-31T16:38:06.243Z,10.67
2022-10-31T16:40:34.439Z,17.60
2022-10-31T16:43:02.586Z,12.07
2022-10-31T16:45:33.505Z,14.03
2022-10-31T16:48:10.998Z,13.93
2022-10-31T16:50:39.478Z,13.13
2022-10-31T16:53:15.163Z,17.90
2022-10-31T16:56:04.613Z,16.23
2022-10-31T16:58:37.048Z,17.53
2022-10-31T17:01:07.746Z,16.17
2022-10-31T17:03:35.246Z,15.47
2022-10-31T17:06:02.794Z,15.70
2022-10-31T17:08:31.038Z,12.93
2022-10-31T17:10:59.952Z,15.30
2022-10-31T17:13:31.554Z,22.27
2022-10-31T17:16:01.712Z,18.17
2022-10-31T17:18:29.807Z,13.97
2022-10-31T17:21:03.535Z,16.83
2022-10-31T17:23:31.126Z,17.13
2022-10-31T17:25:58.580Z,13.00
2022-10-31T17:28:29.263Z,18.93
2022-10-31T17:30:58.550Z,18.53
2022-10-31T17:33:26.146Z,18.60
2022-10-31T17:35:53.620Z,17.87
2022-10-31T17:38:21.068Z,16.73
2022-10-31T17:43:20.984Z,30.80
2022-10-31T17:45:48.404Z,33.20
2022-10-31T17:48:15.840Z,33.27
2022-10-31T17:50:43.242Z,22.40
2022-10-31T17:53:10.659Z,19.47
2022-10-31T17:55:38.158Z,16.97
2022-10-31T17:58:06.027Z,20.20
2022-10-31T18:00:34.326Z,21.93
2022-10-31T18:03:04.642Z,22.83
2022-10-31T18:05:32.904Z,29.97
2022-10-31T18:08:04.036Z,28.40
2022-10-31T18:10:32.242Z,26.93
2022-10-31T18:13:01.343Z,27.57
2022-10-31T18:15:29.135Z,17.87
2022-10-31T18:17:56.670Z,42.50
2022-10-31T18:20:24.074Z,27.10
2022-10-31T18:22:51.523Z,25.63
2022-10-31T18:25:19.055Z,20.67
2022-10-31T18:27:46.418Z,22.43
2022-10-31T18:30:13.942Z,23.27
2022-10-31T18:32:41.459Z,26.83
2022-10-31T18:35:09.036Z,28.63
2022-10-31T18:37:36.674Z,25.70
2022-10-31T18:40:04.507Z,29.40
2022-10-31T18:42:32.017Z,30.70
2022-10-31T18:45:06.675Z,31.87
2022-10-31T18:47:46.867Z,23.87
2022-10-31T18:50:14.356Z,23.53
2022-10-31T18:52:42.390Z,26.10
2022-10-31T18:55:10.231Z,25.90
2022-10-31T18:57:37.881Z,24.23
2022-10-31T19:00:07.271Z,25.80
2022-10-31T19:02:34.705Z,25.30
2022-10-31T19:05:02.179Z,27.47
2022-10-31T19:07:29.629Z,28.53
2022-10-31T19:09:57.301Z,28.80
2022-10-31T19:12:24.805Z,32.20
2022-10-31T19:14:52.235Z,39.97
2022-10-31T19:17:19.667Z,42.77
2022-10-31T19:19:47.202Z,47.90
2022-10-31T19:22:14.584Z,45.83
2022-10-31T19:24:42.033Z,36.77
2022-10-31T19:27:12.812Z,33.97
2022-10-31T19:29:42.396Z,32.63
2022-10-31T19:32:10.123Z,26.80
2022-10-31T19:34:37.619Z,25.50
2022-10-31T19:37:05.023Z,24.37
2022-10-31T19:39:32.486Z,24.67
2022-10-31T19:42:00.019Z,25.07
2022-10-31T19:44:30.213Z,21.30
2022-10-31T19:46:58.038Z,25.60
2022-10-31T19:49:25.806Z,29.33
2022-10-31T19:51:53.336Z,25.83
2022-10-31T19:54:20.829Z,25.73
2022-10-31T19:56:48.243Z,23.40
2022-10-31T19:59:15.760Z,31.27
2022-10-31T20:01:43.272Z,31.97
2022-10-31T20:04:10.937Z,29.87
2022-10-31T20:06:41.104Z,29.17
2022-10-31T20:09:15.081Z,26.93
2022-10-31T20:11:45.410Z,22.17
2022-10-31T20:14:18.183Z,29.03
2022-10-31T20:16:46.207Z,29.77
2022-10-31T20:19:13.671Z,26.77
2022-10-31T20:21:41.673Z,19.60
2022-10-31T20:24:11.227Z,18.57
2022-10-31T20:26:41.479Z,23.60
2022-10-31T20:29:16.062Z,28.00
2022-10-31T20:31:45.070Z,24.67
2022-10-31T20:34:12.609Z,28.97
2022-10-31T20:36:40.032Z,23.97
2022-10-31T20:39:09.337Z,24.43
2022-10-31T20:41:39.030Z,20.90
2022-10-31T20:44:07.112Z,20.87
2022-10-31T20:46:34.930Z,25.17
2022-10-31T20:49:02.550Z,23.60
2022-10-31T20:51:31.954Z,25.17
2022-10-31T20:54:00.822Z,38.30
2022-10-31T20:56:29.447Z,41.63
2022-10-31T20:58:57.917Z,38.30
2022-10-31T21:01:33.247Z,30.87
2022-10-31T21:04:00.947Z,36.77
2022-10-31T21:06:29.539Z,32.30
2022-10-31T21:08:58.044Z,32.63
2022-10-31T21:11:28.265Z,28.27
2022-10-31T21:13:56.026Z,29.30
2022-10-31T21:16:31.390Z,30.37
2022-10-31T21:19:03.328Z,32.77
2022-10-31T21:21:35.152Z,29.37
2022-10-31T21:24:11.509Z,45.10
2022-10-31T21:26:44.072Z,72.60
2022-10-31T21:29:12.991Z,53.73
2022-10-31T21:31:41.707Z,44.27
2022-10-31T21:34:09.860Z,37.63
2022-10-31T21:36:37.890Z,32.90
2022-10-31T21:39:08.026Z,38.53
2022-10-31T21:41:36.251Z,38.10
2022-10-31T21:44:04.608Z,45.77
2022-10-31T21:46:33.979Z,47.30
2022-10-31T21:49:04.028Z,51.03
2022-10-31T21:51:34.687Z,42.63
2022-10-31T21:54:21.352Z,45.20
2022-10-31T21:56:48.922Z,34.90
2022-10-31T21:59:16.327Z,46.50
2022-10-31T22:01:43.919Z,35.40
2022-10-31T22:04:11.909Z,35.77
2022-10-31T22:06:39.454Z,33.37
2022-10-31T22:09:10.696Z,31.60
2022-10-31T22:11:38.313Z,33.83
2022-10-31T22:14:06.225Z,32.33
2022-10-31T22:16:36.921Z,32.93
2022-10-31T22:19:06.780Z,32.27
2022-10-31T22:21:44.070Z,29.07
2022-10-31T22:24:11.733Z,31.33
2022-10-31T22:26:40.283Z,32.13
2022-10-31T22:29:19.295Z,30.20
2022-10-31T22:31:53.238Z,27.73
2022-10-31T22:34:24.611Z,28.77
2022-10-31T22:36:52.118Z,25.80
2022-10-31T22:39:19.668Z,28.33
2022-10-31T22:41:47.135Z,35.87
2022-10-31T22:44:14.591Z,30.60
2022-10-31T22:46:42.179Z,31.30
2022-10-31T22:49:17.483Z,36.17
2022-10-31T22:51:45.554Z,27.50
2022-10-31T22:54:17.967Z,28.63
2022-10-31T22:56:46.126Z,27.23
2022-10-31T22:59:15.999Z,25.57
2022-10-31T23:01:46.841Z,27.37
2022-10-31T23:04:16.553Z,27.30
2022-10-31T23:06:44.559Z,25.67
2022-10-31T23:09:15.317Z,26.87
2022-10-31T23:11:43.147Z,26.87
2022-10-31T23:14:21.038Z,32.03
2022-10-31T23:16:56.337Z,34.93
2022-10-31T23:19:27.858Z,34.60
2022-10-31T23:22:05.029Z,31.67
2022-10-31T23:24:44.983Z,33.80
2022-10-31T23:27:22.545Z,34.80
2022-10-31T23:29:58.090Z,40.87
2022-10-31T23:32:35.307Z,43.27
2022-10-31T23:35:09.692Z,33.37
2022-10-31T23:37:39.018Z,30.40
2022-10-31T23:40:11.263Z,36.00
2022-10-31T23:42:38.867Z,37.27
2022-10-31T23:45:06.882Z,37.87
2022-10-31T23:47:35.775Z,34.93
2022-10-31T23:50:04.095Z,35.50
2022-10-31T23:52:31.525Z,38.77
2022-10-31T23:54:59.905Z,35.63
2022-10-31T23:57:27.340Z,36.07
2022-10-31T23:59:54.795Z,39.13
